Terminal Aerodrome Forecast
Issued by NWS Twin Cities, MN

Home | Current Version | Previous Version | Graphics & Text | Print | Product List | Glossary On
Versions: 1 2 3 4 5 6 7 8 9 10 11 12 13 14 15 16
000
FTUS43 KMPX 241700
TAFEAU
TAF
KEAU 241729Z 2418/2518 34007KT P6SM BKN015 OVC040
     FM250100 29005KT P6SM SCT007 OVC012
     FM250500 25004KT 2SM BR OVC004
     FM251200 20008KT 6SM BR OVC004=

USA.gov is the U.S. government's official web portal to all federal, state and local government web resources and services.